Delta Virtual Airport Information Service

Riyadh King Khalid International Airport

ICAO: OERK Country: Saudi Arabia
Latitude: 24.9576 Longitude: 46.6988
Latest Arrival : SVA238 (LSGG-OERK) Latest Departure : SVA119 (1) (OERK-EGLL)


WX CaptureLIVE
Data provided by noaa.gov | Fetched at 18:00:15

METAR : OERK 172100Z 29005KT CAVOK 33/03 Q1004 NOSIG

TAF : OERK 172100Z 29005KT CAVOK 33/03 Q1004 NOSIG


Runway Data for OERK
Data provided by openaviationdata.com

Runway ID Mag Var Hdg Length Elevation Surface ILS Freq ILS Id ILS Slope
15L 2 148° 13826 ft 2048 ft Asphalt 109.5 IELF 3
15R 2 148° 13829 ft 2048 ft Asphalt 110.5 ITIH 3
33L 2 328° 13829 ft 2048 ft Asphalt 110.1 IFAT 3
33R 2 328° 13826 ft 2048 ft Asphalt 109.1 IKIA 3

Riyadh King Khalid International Airport, Saudi Arabia
Use only for reference purposes



Not for navigational purposes.